createdAt,value
2022-11-22T00:01:32.292Z,1.30
2022-11-22T00:04:00.972Z,1.50
2022-11-22T00:06:28.695Z,1.90
2022-11-22T00:08:56.448Z,0.70
2022-11-22T00:11:24.382Z,1.20
2022-11-22T00:13:52.586Z,3.00
2022-11-22T00:16:23.863Z,1.70
2022-11-22T00:18:54.106Z,5.70
2022-11-22T00:21:23.691Z,1.50
2022-11-22T00:23:57.566Z,0.90
2022-11-22T00:26:26.825Z,0.80
2022-11-22T00:28:54.656Z,0.80
2022-11-22T00:31:23.346Z,1.10
2022-11-22T00:33:52.015Z,1.00
2022-11-22T00:36:21.457Z,0.70
2022-11-22T00:38:52.886Z,0.90
2022-11-22T00:41:20.888Z,2.60
2022-11-22T00:43:49.023Z,1.00
2022-11-22T00:46:16.856Z,0.70
2022-11-22T00:48:45.057Z,0.90
2022-11-22T00:51:14.510Z,0.70
2022-11-22T00:53:42.405Z,1.10
2022-11-22T00:56:14.867Z,1.00
2022-11-22T00:58:44.806Z,3.00
2022-11-22T01:01:12.847Z,1.40
2022-11-22T01:03:41.423Z,0.50
2022-11-22T01:06:10.904Z,1.20
2022-11-22T01:08:38.975Z,1.30
2022-11-22T01:11:07.559Z,0.90
2022-11-22T01:13:35.671Z,0.90
2022-11-22T01:16:09.811Z,0.90
2022-11-22T01:21:08.745Z,0.70
2022-11-22T01:23:41.209Z,0.90
2022-11-22T01:26:10.049Z,0.90
2022-11-22T01:28:37.978Z,0.80
2022-11-22T01:31:07.756Z,1.20
2022-11-22T01:33:35.970Z,1.10
2022-11-22T01:36:04.052Z,1.20
2022-11-22T01:38:32.220Z,0.80
2022-11-22T01:41:03.183Z,0.90
2022-11-22T01:43:33.664Z,1.40
2022-11-22T01:46:27.403Z,1.30
2022-11-22T01:49:07.222Z,1.00
2022-11-22T01:51:44.211Z,0.90
2022-11-22T01:54:19.879Z,2.50
2022-11-22T01:56:57.675Z,1.00
2022-11-22T01:59:31.452Z,1.00
2022-11-22T02:02:02.679Z,1.30
2022-11-22T02:04:33.500Z,1.20
2022-11-22T02:07:14.050Z,0.90
2022-11-22T02:09:44.764Z,1.10
2022-11-22T02:12:18.005Z,0.80
2022-11-22T02:14:47.771Z,0.80
2022-11-22T02:17:16.119Z,2.00
2022-11-22T02:19:53.845Z,1.10
2022-11-22T02:22:37.292Z,1.00
2022-11-22T02:25:36.200Z,0.90
2022-11-22T02:28:10.616Z,1.00
2022-11-22T02:30:41.456Z,1.60
2022-11-22T02:33:14.155Z,0.80
2022-11-22T02:35:42.247Z,0.80
2022-11-22T02:38:25.113Z,0.70
2022-11-22T02:41:07.591Z,0.80
2022-11-22T02:43:43.843Z,2.30
2022-11-22T02:46:20.768Z,1.00
2022-11-22T02:48:49.839Z,0.90
2022-11-22T02:51:21.995Z,1.00
2022-11-22T02:53:53.741Z,1.00
2022-11-22T02:56:22.825Z,0.70
2022-11-22T02:58:51.360Z,0.90
2022-11-22T03:01:19.397Z,0.80
2022-11-22T03:03:47.302Z,0.90
2022-11-22T03:06:17.771Z,1.00
2022-11-22T03:08:54.730Z,1.00
2022-11-22T03:11:27.708Z,1.30
2022-11-22T03:13:55.543Z,0.90
2022-11-22T03:16:23.291Z,1.10
2022-11-22T03:18:51.356Z,1.00
2022-11-22T03:21:19.089Z,1.30
2022-11-22T03:23:46.837Z,1.00
2022-11-22T03:26:17.533Z,1.00
2022-11-22T03:28:46.081Z,2.30
2022-11-22T03:31:15.150Z,1.00
2022-11-22T03:33:42.903Z,1.20
2022-11-22T03:36:10.767Z,1.30
2022-11-22T03:38:38.917Z,1.00
2022-11-22T03:41:06.690Z,0.90
2022-11-22T03:43:34.710Z,1.20
2022-11-22T03:46:03.816Z,1.00
2022-11-22T03:48:32.058Z,1.30
2022-11-22T03:51:07.591Z,1.10
2022-11-22T03:53:35.873Z,1.20
2022-11-22T03:56:05.066Z,1.00
2022-11-22T03:58:36.628Z,1.40
2022-11-22T04:01:04.477Z,1.00
2022-11-22T04:03:35.441Z,1.10
2022-11-22T04:06:03.607Z,1.40
2022-11-22T04:08:32.317Z,1.50
2022-11-22T04:11:00.383Z,2.00
2022-11-22T04:13:48.924Z,3.20
2022-11-22T04:16:16.662Z,1.40
2022-11-22T04:18:44.537Z,1.80
2022-11-22T04:21:33.246Z,1.50
2022-11-22T04:24:29.369Z,1.30
2022-11-22T04:26:58.534Z,21.30
2022-11-22T04:29:26.309Z,4.20
2022-11-22T04:32:14.355Z,9.90
2022-11-22T04:34:44.870Z,10.70
2022-11-22T04:37:13.438Z,2.40
2022-11-22T04:39:41.317Z,2.40
2022-11-22T04:42:28.329Z,1.70
2022-11-22T04:44:57.236Z,1.30
2022-11-22T04:47:48.963Z,1.80
2022-11-22T04:50:37.047Z,3.20
2022-11-22T04:53:08.751Z,1.20
2022-11-22T04:55:36.535Z,1.50
2022-11-22T04:58:05.027Z,1.90
2022-11-22T05:00:38.229Z,2.10
2022-11-22T05:03:09.681Z,1.50
2022-11-22T05:05:44.014Z,1.20
2022-11-22T05:08:14.483Z,1.30
2022-11-22T05:10:58.103Z,1.10
2022-11-22T05:13:32.146Z,1.00
2022-11-22T05:16:05.252Z,1.30
2022-11-22T05:18:36.637Z,1.10
2022-11-22T05:21:11.907Z,1.00
2022-11-22T05:23:55.822Z,1.60
2022-11-22T05:26:32.809Z,1.50
2022-11-22T05:29:10.693Z,1.10
2022-11-22T05:31:45.699Z,1.00
2022-11-22T05:34:20.453Z,1.40
2022-11-22T05:36:48.320Z,0.70
2022-11-22T05:39:16.130Z,1.50
2022-11-22T05:41:56.304Z,1.40
2022-11-22T05:44:25.323Z,1.20
2022-11-22T05:46:53.400Z,1.50
2022-11-22T05:49:21.528Z,3.10
2022-11-22T05:51:53.667Z,3.20
2022-11-22T05:54:22.154Z,1.40
2022-11-22T05:56:50.029Z,1.50
2022-11-22T05:59:17.711Z,1.40
2022-11-22T06:01:45.564Z,1.40
2022-11-22T06:04:14.213Z,1.20
2022-11-22T06:06:41.949Z,0.70
2022-11-22T06:09:09.906Z,1.00
2022-11-22T06:11:38.081Z,1.10
2022-11-22T06:14:09.769Z,1.40
2022-11-22T06:16:37.682Z,1.00
2022-11-22T06:19:05.577Z,1.50
2022-11-22T06:21:34.986Z,1.60
2022-11-22T06:24:03.551Z,1.60
2022-11-22T06:26:36.205Z,1.40
2022-11-22T06:29:07.791Z,0.80
2022-11-22T06:31:37.119Z,1.60
2022-11-22T06:34:05.475Z,1.00
2022-11-22T06:36:39.013Z,2.60
2022-11-22T06:39:07.311Z,3.50
2022-11-22T06:41:38.035Z,5.30
2022-11-22T06:44:10.327Z,2.00
2022-11-22T06:46:39.183Z,2.20
2022-11-22T06:49:08.712Z,2.40
2022-11-22T06:51:37.321Z,3.00
2022-11-22T06:54:05.746Z,4.60
2022-11-22T06:56:41.002Z,4.30
2022-11-22T06:59:09.954Z,1.30
2022-11-22T07:01:41.429Z,3.10
2022-11-22T07:04:12.492Z,2.40
2022-11-22T07:06:40.385Z,4.50
2022-11-22T07:09:12.685Z,4.20
2022-11-22T07:11:41.802Z,2.80
2022-11-22T07:14:12.982Z,2.30
2022-11-22T07:16:44.883Z,3.10
2022-11-22T07:19:13.524Z,3.60
2022-11-22T07:21:41.302Z,4.80
2022-11-22T07:24:10.060Z,2.20
2022-11-22T07:26:40.260Z,0.80
2022-11-22T07:29:09.025Z,1.30
2022-11-22T07:31:38.485Z,2.10
2022-11-22T07:34:07.211Z,3.70
2022-11-22T07:36:36.212Z,1.60
2022-11-22T07:39:04.271Z,20.80
2022-11-22T07:41:35.732Z,13.70
2022-11-22T07:44:07.557Z,8.20
2022-11-22T07:46:39.478Z,5.90
2022-11-22T07:49:09.863Z,5.50
2022-11-22T07:51:38.650Z,40.40
2022-11-22T07:54:08.148Z,25.70
2022-11-22T07:56:42.710Z,17.70
2022-11-22T07:59:11.924Z,8.10
2022-11-22T08:01:39.897Z,6.20
2022-11-22T08:04:13.575Z,2.30
2022-11-22T08:06:42.108Z,2.00
2022-11-22T08:09:14.338Z,1.20
2022-11-22T08:11:44.112Z,1.30
2022-11-22T08:14:12.954Z,2.60
2022-11-22T08:16:42.763Z,3.00
2022-11-22T08:19:16.800Z,1.60
2022-11-22T08:24:16.937Z,2.40
2022-11-22T08:26:44.935Z,6.70
2022-11-22T08:29:14.787Z,4.90
2022-11-22T08:31:42.725Z,9.30
2022-11-22T08:34:12.837Z,7.50
2022-11-22T08:36:41.057Z,9.80
2022-11-22T08:39:15.188Z,8.90
2022-11-22T08:41:43.174Z,5.20
2022-11-22T08:44:11.583Z,9.20
2022-11-22T08:46:40.200Z,6.50
2022-11-22T08:49:11.203Z,7.40
2022-11-22T08:51:45.023Z,4.70
2022-11-22T08:54:15.576Z,2.90
2022-11-22T08:56:45.809Z,9.70
2022-11-22T08:59:14.955Z,2.90
2022-11-22T09:01:44.935Z,3.40
2022-11-22T09:04:15.268Z,7.40
2022-11-22T09:09:38.326Z,6.20
2022-11-22T09:12:09.829Z,5.10
2022-11-22T09:14:38.452Z,7.30
2022-11-22T09:17:06.704Z,10.20
2022-11-22T09:19:37.345Z,5.40
2022-11-22T09:22:05.197Z,6.90
2022-11-22T09:24:35.865Z,5.90
2022-11-22T09:27:04.095Z,11.90
2022-11-22T09:29:34.912Z,7.90
2022-11-22T09:32:04.905Z,10.40
2022-11-22T09:34:33.051Z,6.60
2022-11-22T09:37:06.648Z,8.30
2022-11-22T09:39:34.657Z,7.60
2022-11-22T09:42:31.355Z,7.90
2022-11-22T09:45:50.615Z,7.90
2022-11-22T09:49:12.426Z,3.90
2022-11-22T09:51:50.809Z,9.70
2022-11-22T09:54:28.172Z,6.00
2022-11-22T09:57:03.937Z,2.80
2022-11-22T09:59:50.455Z,3.50
2022-11-22T10:03:01.293Z,3.80
2022-11-22T10:05:53.519Z,7.00
2022-11-22T10:09:07.860Z,10.00
2022-11-22T10:12:10.025Z,27.60
2022-11-22T10:15:09.501Z,10.30
2022-11-22T10:18:04.676Z,20.00
2022-11-22T10:20:48.442Z,7.50
2022-11-22T10:23:25.964Z,2.80
2022-11-22T10:26:00.422Z,2.60
2022-11-22T10:29:02.116Z,2.90
2022-11-22T10:31:47.582Z,2.10
2022-11-22T10:34:45.338Z,4.70
2022-11-22T10:37:34.797Z,3.00
2022-11-22T10:40:30.809Z,5.00
2022-11-22T10:43:41.482Z,1.80
2022-11-22T10:46:39.022Z,4.10
2022-11-22T10:49:48.287Z,5.30
2022-11-22T10:52:52.375Z,5.90
2022-11-22T10:56:14.423Z,5.70
2022-11-22T11:02:17.547Z,5.00
2022-11-22T11:04:51.469Z,8.50
2022-11-22T11:07:24.665Z,6.10
2022-11-22T11:10:30.864Z,5.60
2022-11-22T11:13:37.991Z,8.10
2022-11-22T11:16:29.406Z,8.30
2022-11-22T11:19:22.829Z,8.60
2022-11-22T11:22:50.389Z,11.70
2022-11-22T11:28:27.603Z,3.40
2022-11-22T11:31:02.179Z,4.50
2022-11-22T11:33:38.390Z,3.90
2022-11-22T11:38:43.303Z,3.40
2022-11-22T11:41:32.786Z,8.50
2022-11-22T11:44:05.401Z,12.60
2022-11-22T11:46:42.569Z,10.70
2022-11-22T11:49:17.192Z,5.60
2022-11-22T11:51:55.543Z,3.60
2022-11-22T11:54:40.431Z,4.40
2022-11-22T11:57:20.526Z,2.50
2022-11-22T11:59:51.776Z,9.60
2022-11-22T12:02:27.002Z,4.80
2022-11-22T12:05:02.093Z,2.00
2022-11-22T12:07:46.445Z,0.90
2022-11-22T12:10:32.152Z,1.80
2022-11-22T12:14:05.040Z,1.10
2022-11-22T12:16:44.021Z,0.90
2022-11-22T12:20:02.704Z,1.00
2022-11-22T12:22:49.791Z,2.20
2022-11-22T12:25:37.458Z,1.60
2022-11-22T12:28:22.544Z,1.20
2022-11-22T12:31:14.944Z,1.30
2022-11-22T12:33:54.930Z,1.30
2022-11-22T12:37:33.866Z,1.80
2022-11-22T12:40:17.567Z,1.20
2022-11-22T12:43:18.295Z,0.90
2022-11-22T12:45:55.029Z,1.40
2022-11-22T12:48:42.394Z,4.10
2022-11-22T12:51:35.878Z,2.70
2022-11-22T12:54:15.596Z,4.50
2022-11-22T12:56:57.938Z,7.30
2022-11-22T12:59:45.405Z,4.60
2022-11-22T13:02:59.381Z,2.80
2022-11-22T13:06:06.991Z,2.30
2022-11-22T13:09:03.280Z,4.30
2022-11-22T13:11:41.195Z,3.10
2022-11-22T13:14:43.306Z,5.60
2022-11-22T13:17:16.879Z,10.10
2022-11-22T13:20:00.361Z,6.10
2022-11-22T13:23:08.443Z,3.60
2022-11-22T13:26:14.765Z,36.10
2022-11-22T13:28:45.759Z,35.20
2022-11-22T13:31:13.693Z,30.20
2022-11-22T13:34:00.297Z,13.20
2022-11-22T13:36:31.498Z,11.10
2022-11-22T13:39:04.463Z,12.10
2022-11-22T13:41:42.668Z,4.80
2022-11-22T13:44:50.911Z,6.10
2022-11-22T13:47:24.904Z,3.10
2022-11-22T13:49:54.075Z,4.80
2022-11-22T13:52:22.910Z,2.60
2022-11-22T13:54:52.852Z,1.50
2022-11-22T13:57:29.699Z,1.60
2022-11-22T14:00:15.703Z,2.70
2022-11-22T14:02:54.723Z,2.30
2022-11-22T14:05:42.152Z,3.00
2022-11-22T14:08:38.895Z,2.40
2022-11-22T14:11:45.871Z,3.80
2022-11-22T14:14:51.120Z,2.20
2022-11-22T14:17:42.371Z,2.90
2022-11-22T14:20:44.734Z,8.70
2022-11-22T14:23:46.717Z,4.80
2022-11-22T14:26:25.744Z,2.20
2022-11-22T14:29:33.584Z,1.50
2022-11-22T14:32:20.607Z,2.30
2022-11-22T14:35:04.673Z,3.00
2022-11-22T14:37:32.495Z,2.70
2022-11-22T14:40:26.864Z,2.30
2022-11-22T14:43:04.711Z,1.50
2022-11-22T14:45:55.983Z,8.50
2022-11-22T14:48:32.620Z,3.70
2022-11-22T14:51:37.106Z,2.10
2022-11-22T14:54:47.007Z,5.20
2022-11-22T14:57:23.769Z,4.10
2022-11-22T15:00:21.875Z,6.00
2022-11-22T15:03:03.860Z,4.40
2022-11-22T15:09:11.059Z,3.30
2022-11-22T15:09:55.286Z,2.50
2022-11-22T15:13:16.067Z,1.50
2022-11-22T15:57:33.627Z,4.50
2022-11-22T16:00:03.509Z,2.50
2022-11-22T16:02:32.613Z,3.30
2022-11-22T16:06:10.356Z,2.60
2022-11-22T16:07:58.660Z,3.10
2022-11-22T16:10:42.820Z,2.30
2022-11-22T16:13:20.954Z,7.80
2022-11-22T16:16:24.789Z,23.80
2022-11-22T16:19:01.465Z,24.00
2022-11-22T16:21:34.976Z,9.10
2022-11-22T16:24:19.376Z,7.00
2022-11-22T16:26:59.285Z,6.90
2022-11-22T16:29:37.276Z,9.70
2022-11-22T16:32:15.333Z,6.60
2022-11-22T16:35:08.366Z,10.10
2022-11-22T16:37:48.296Z,13.00
2022-11-22T16:40:23.918Z,12.90
2022-11-22T16:42:53.799Z,10.80
2022-11-22T16:45:23.097Z,11.80
2022-11-22T16:48:16.606Z,7.80
2022-11-22T16:50:46.425Z,3.70
2022-11-22T16:53:17.763Z,5.00
2022-11-22T16:55:48.390Z,3.60
2022-11-22T16:58:23.823Z,5.90
2022-11-22T17:00:55.279Z,4.80
2022-11-22T17:03:29.990Z,2.90
2022-11-22T17:05:58.738Z,4.10
2022-11-22T17:08:27.560Z,3.20
2022-11-22T17:10:56.883Z,4.20
2022-11-22T17:13:26.985Z,3.60
2022-11-22T17:15:57.884Z,12.70
2022-11-22T17:18:27.301Z,2.40
2022-11-22T17:20:57.312Z,2.40
2022-11-22T17:23:38.602Z,2.60
2022-11-22T17:26:06.909Z,4.50
2022-11-22T17:28:35.150Z,4.60
2022-11-22T17:31:14.207Z,7.20
2022-11-22T17:33:43.237Z,6.40
2022-11-22T17:36:36.984Z,2.10
2022-11-22T17:39:11.554Z,4.60
2022-11-22T17:41:44.195Z,4.80
2022-11-22T17:44:17.355Z,2.50
2022-11-22T17:46:49.325Z,3.00
2022-11-22T17:49:19.123Z,2.10
2022-11-22T17:51:48.211Z,2.20
2022-11-22T17:54:16.336Z,1.90
2022-11-22T17:56:45.401Z,1.30
2022-11-22T17:59:14.136Z,3.70
2022-11-22T18:01:48.769Z,1.40
2022-11-22T18:04:18.953Z,4.50
2022-11-22T18:06:47.008Z,3.60
2022-11-22T18:09:19.207Z,9.50
2022-11-22T18:11:52.054Z,4.60
2022-11-22T18:14:23.485Z,3.90
2022-11-22T18:16:51.336Z,3.90
2022-11-22T18:19:21.909Z,3.10
2022-11-22T18:21:53.157Z,6.20
2022-11-22T18:24:21.074Z,3.30
2022-11-22T18:26:51.253Z,4.60
2022-11-22T18:32:13.769Z,3.80
2022-11-22T18:34:43.566Z,4.80
2022-11-22T18:37:30.303Z,4.20
2022-11-22T18:39:59.503Z,4.30
2022-11-22T18:42:27.949Z,5.80
2022-11-22T18:44:56.586Z,3.90
2022-11-22T18:47:27.686Z,6.00
2022-11-22T18:49:56.645Z,4.10
2022-11-22T18:52:27.113Z,4.00
2022-11-22T18:54:56.755Z,8.00
2022-11-22T18:57:24.530Z,5.70
2022-11-22T18:59:53.764Z,4.90
2022-11-22T19:02:28.428Z,3.80
2022-11-22T19:05:00.521Z,1.90
2022-11-22T19:07:28.507Z,2.70
2022-11-22T19:09:59.508Z,3.20
2022-11-22T19:12:34.529Z,2.60
2022-11-22T19:15:02.387Z,2.10
2022-11-22T19:17:30.591Z,4.80
2022-11-22T19:20:01.295Z,2.80
2022-11-22T19:22:30.786Z,3.20
2022-11-22T19:24:59.143Z,3.10
2022-11-22T19:27:27.403Z,4.40
2022-11-22T19:29:58.024Z,3.60
2022-11-22T19:32:28.680Z,3.60
2022-11-22T19:35:01.197Z,3.50
2022-11-22T19:37:33.128Z,2.90
2022-11-22T19:40:01.774Z,4.50
2022-11-22T19:42:38.591Z,4.40
2022-11-22T19:45:09.455Z,4.00
2022-11-22T19:47:45.061Z,4.30
2022-11-22T19:50:14.537Z,5.30
2022-11-22T19:52:43.055Z,5.00
2022-11-22T19:55:18.517Z,4.60
2022-11-22T19:57:47.194Z,6.20
2022-11-22T20:03:08.499Z,2.10
2022-11-22T20:05:36.667Z,2.30
2022-11-22T20:08:05.452Z,5.20
2022-11-22T20:10:37.611Z,1.80
2022-11-22T20:13:09.378Z,4.90
2022-11-22T20:15:42.028Z,4.60
2022-11-22T20:18:10.884Z,5.10
2022-11-22T20:20:50.427Z,4.00
2022-11-22T20:23:21.712Z,5.20
2022-11-22T20:25:50.818Z,1.60
2022-11-22T20:28:18.817Z,4.70
2022-11-22T20:30:50.185Z,3.90
2022-11-22T20:33:18.007Z,4.90
2022-11-22T20:35:48.047Z,4.50
2022-11-22T20:38:16.546Z,3.00
2022-11-22T20:40:44.314Z,4.00
2022-11-22T20:43:14.713Z,7.70
2022-11-22T20:45:43.875Z,10.90
2022-11-22T20:48:17.324Z,6.10
2022-11-22T20:50:51.597Z,8.20
2022-11-22T20:53:21.220Z,3.40
2022-11-22T20:55:49.079Z,7.80
2022-11-22T20:58:16.990Z,7.20
2022-11-22T21:00:48.932Z,13.80
2022-11-22T21:03:17.287Z,8.90
2022-11-22T21:05:53.500Z,11.30
2022-11-22T21:08:24.540Z,16.60
2022-11-22T21:10:52.867Z,9.70
2022-11-22T21:13:22.282Z,12.90
2022-11-22T21:15:50.143Z,17.30
2022-11-22T21:18:25.671Z,19.70
2022-11-22T21:20:54.333Z,13.20
2022-11-22T21:23:23.286Z,13.10
2022-11-22T21:25:53.566Z,12.20
2022-11-22T21:28:23.480Z,18.60
2022-11-22T21:30:58.709Z,12.20
2022-11-22T21:33:27.704Z,6.50
2022-11-22T21:35:56.572Z,5.80
2022-11-22T21:38:31.102Z,5.20
2022-11-22T21:41:24.336Z,8.00
2022-11-22T21:43:57.082Z,8.40
2022-11-22T21:46:26.719Z,8.80
2022-11-22T21:48:56.282Z,4.60
2022-11-22T21:51:29.107Z,5.60
2022-11-22T21:54:05.357Z,3.20
2022-11-22T21:56:33.920Z,6.70
2022-11-22T21:59:02.667Z,7.00
2022-11-22T22:01:34.697Z,5.60
2022-11-22T22:04:07.875Z,4.90
2022-11-22T22:06:35.893Z,6.40
2022-11-22T22:09:04.972Z,7.40
2022-11-22T22:11:35.484Z,8.20
2022-11-22T22:14:03.769Z,5.00
2022-11-22T22:16:36.224Z,6.40
2022-11-22T22:19:09.569Z,5.70
2022-11-22T22:21:38.003Z,6.80
2022-11-22T22:24:06.418Z,5.80
2022-11-22T22:26:35.276Z,5.50
2022-11-22T22:29:03.167Z,6.90
2022-11-22T22:31:31.614Z,5.60
2022-11-22T22:34:01.015Z,6.50
2022-11-22T22:36:29.214Z,3.90
2022-11-22T22:39:02.798Z,5.40
2022-11-22T22:41:31.486Z,4.50
2022-11-22T22:43:59.297Z,3.30
2022-11-22T22:46:27.788Z,3.90
2022-11-22T22:49:01.655Z,7.50
2022-11-22T22:51:33.286Z,3.80
2022-11-22T22:54:02.031Z,5.40
2022-11-22T22:56:33.306Z,5.50
2022-11-22T22:59:05.282Z,4.00
2022-11-22T23:01:33.199Z,4.50
2022-11-22T23:04:02.618Z,6.00
2022-11-22T23:06:37.729Z,3.00
2022-11-22T23:09:11.463Z,6.00
2022-11-22T23:14:31.183Z,5.00
2022-11-22T23:17:01.591Z,2.30
2022-11-22T23:19:30.509Z,4.30
2022-11-22T23:21:59.685Z,5.00
2022-11-22T23:24:31.933Z,4.90
2022-11-22T23:27:00.731Z,3.10
2022-11-22T23:29:29.352Z,2.70
2022-11-22T23:31:59.535Z,4.70
2022-11-22T23:34:27.911Z,5.00
2022-11-22T23:36:56.024Z,5.20
2022-11-22T23:39:24.548Z,2.40
2022-11-22T23:41:52.454Z,2.30
2022-11-22T23:44:20.415Z,2.00
2022-11-22T23:46:48.331Z,3.90
2022-11-22T23:49:16.747Z,2.10
2022-11-22T23:51:46.689Z,3.60
2022-11-22T23:54:15.533Z,1.90
2022-11-22T23:56:43.925Z,1.70
2022-11-22T23:59:13.340Z,1.60
